sensor_id;sensor_type;location;lat;lon;timestamp;temperature;humidity
73112;HTU21D;61301;51.956;5.876;2023-08-07T00:00:08;18.04;66.42
73112;HTU21D;61301;51.956;5.876;2023-08-07T00:02:35;18.00;66.57
73112;HTU21D;61301;51.956;5.876;2023-08-07T00:05:01;17.94;66.92
73112;HTU21D;61301;51.956;5.876;2023-08-07T00:07:27;17.84;67.19
73112;HTU21D;61301;51.956;5.876;2023-08-07T00:09:53;17.78;67.33
73112;HTU21D;61301;51.956;5.876;2023-08-07T00:12:19;17.87;67.09
73112;HTU21D;61301;51.956;5.876;2023-08-07T00:14:47;17.89;67.17
73112;HTU21D;61301;51.956;5.876;2023-08-07T00:17:13;17.97;66.90
73112;HTU21D;61301;51.956;5.876;2023-08-07T00:19:39;18.05;66.81
73112;HTU21D;61301;51.956;5.876;2023-08-07T00:22:05;17.98;66.74
73112;HTU21D;61301;51.956;5.876;2023-08-07T00:24:31;18.08;66.53
73112;HTU21D;61301;51.956;5.876;2023-08-07T00:26:57;17.96;66.75
73112;HTU21D;61301;51.956;5.876;2023-08-07T00:29:23;18.07;66.45
73112;HTU21D;61301;51.956;5.876;2023-08-07T00:31:49;17.87;66.88
73112;HTU21D;61301;51.956;5.876;2023-08-07T00:34:15;17.91;66.68
73112;HTU21D;61301;51.956;5.876;2023-08-07T00:36:43;17.98;66.56
73112;HTU21D;61301;51.956;5.876;2023-08-07T00:39:09;17.97;66.68
73112;HTU21D;61301;51.956;5.876;2023-08-07T00:41:39;17.93;66.68
73112;HTU21D;61301;51.956;5.876;2023-08-07T00:44:05;17.72;67.35
73112;HTU21D;61301;51.956;5.876;2023-08-07T00:46:31;17.84;67.04
73112;HTU21D;61301;51.956;5.876;2023-08-07T00:48:58;17.74;67.38
73112;HTU21D;61301;51.956;5.876;2023-08-07T00:51:24;17.84;67.07
73112;HTU21D;61301;51.956;5.876;2023-08-07T00:53:50;17.91;66.86
73112;HTU21D;61301;51.956;5.876;2023-08-07T00:56:16;17.94;66.71
73112;HTU21D;61301;51.956;5.876;2023-08-07T00:58:43;17.85;66.83
73112;HTU21D;61301;51.956;5.876;2023-08-07T01:01:09;17.85;66.75
73112;HTU21D;61301;51.956;5.876;2023-08-07T01:03:35;17.93;66.45
73112;HTU21D;61301;51.956;5.876;2023-08-07T01:06:01;17.83;66.67
73112;HTU21D;61301;51.956;5.876;2023-08-07T01:08:28;17.90;66.45
73112;HTU21D;61301;51.956;5.876;2023-08-07T01:11:07;17.92;66.36
73112;HTU21D;61301;51.956;5.876;2023-08-07T01:13:42;17.88;66.39
73112;HTU21D;61301;51.956;5.876;2023-08-07T01:16:18;17.88;66.24
73112;HTU21D;61301;51.956;5.876;2023-08-07T01:18:45;17.84;66.19
73112;HTU21D;61301;51.956;5.876;2023-08-07T01:21:19;17.83;66.14
73112;HTU21D;61301;51.956;5.876;2023-08-07T01:23:46;17.80;66.14
73112;HTU21D;61301;51.956;5.876;2023-08-07T01:26:15;17.88;65.92
73112;HTU21D;61301;51.956;5.876;2023-08-07T01:31:29;17.79;66.06
73112;HTU21D;61301;51.956;5.876;2023-08-07T01:36:23;17.87;66.03
73112;HTU21D;61301;51.956;5.876;2023-08-07T01:38:50;17.82;66.19
73112;HTU21D;61301;51.956;5.876;2023-08-07T01:41:18;17.81;66.14
73112;HTU21D;61301;51.956;5.876;2023-08-07T01:43:46;17.89;66.00
73112;HTU21D;61301;51.956;5.876;2023-08-07T01:46:12;17.87;66.04
73112;HTU21D;61301;51.956;5.876;2023-08-07T01:48:38;17.92;65.87
73112;HTU21D;61301;51.956;5.876;2023-08-07T01:51:03;17.94;65.96
73112;HTU21D;61301;51.956;5.876;2023-08-07T01:53:29;17.88;66.01
73112;HTU21D;61301;51.956;5.876;2023-08-07T01:55:55;17.96;65.86
73112;HTU21D;61301;51.956;5.876;2023-08-07T01:58:22;17.92;66.03
73112;HTU21D;61301;51.956;5.876;2023-08-07T02:00:48;17.95;65.84
73112;HTU21D;61301;51.956;5.876;2023-08-07T02:03:14;17.91;66.20
73112;HTU21D;61301;51.956;5.876;2023-08-07T02:05:40;18.00;65.90
73112;HTU21D;61301;51.956;5.876;2023-08-07T02:08:06;18.05;65.78
73112;HTU21D;61301;51.956;5.876;2023-08-07T02:10:32;18.04;65.82
73112;HTU21D;61301;51.956;5.876;2023-08-07T02:12:58;17.93;66.12
73112;HTU21D;61301;51.956;5.876;2023-08-07T02:15:26;17.89;66.24
73112;HTU21D;61301;51.956;5.876;2023-08-07T02:17:52;17.85;66.33
73112;HTU21D;61301;51.956;5.876;2023-08-07T02:20:18;17.91;66.14
73112;HTU21D;61301;51.956;5.876;2023-08-07T02:22:44;17.94;66.04
73112;HTU21D;61301;51.956;5.876;2023-08-07T02:25:10;17.98;65.98
73112;HTU21D;61301;51.956;5.876;2023-08-07T02:27:38;17.93;66.07
73112;HTU21D;61301;51.956;5.876;2023-08-07T02:30:05;17.92;66.14
73112;HTU21D;61301;51.956;5.876;2023-08-07T02:32:32;17.96;65.99
73112;HTU21D;61301;51.956;5.876;2023-08-07T02:34:58;18.00;65.85
73112;HTU21D;61301;51.956;5.876;2023-08-07T02:37:24;18.08;65.66
73112;HTU21D;61301;51.956;5.876;2023-08-07T02:39:50;18.08;65.64
73112;HTU21D;61301;51.956;5.876;2023-08-07T02:42:16;18.07;65.55
73112;HTU21D;61301;51.956;5.876;2023-08-07T02:44:42;18.02;65.51
73112;HTU21D;61301;51.956;5.876;2023-08-07T02:47:08;18.12;65.37
73112;HTU21D;61301;51.956;5.876;2023-08-07T02:49:34;18.10;65.37
73112;HTU21D;61301;51.956;5.876;2023-08-07T02:52:01;18.09;65.27
73112;HTU21D;61301;51.956;5.876;2023-08-07T02:54:27;17.99;65.70
73112;HTU21D;61301;51.956;5.876;2023-08-07T02:56:53;17.95;65.82
73112;HTU21D;61301;51.956;5.876;2023-08-07T02:59:19;17.99;65.63
73112;HTU21D;61301;51.956;5.876;2023-08-07T03:01:45;17.91;66.02
73112;HTU21D;61301;51.956;5.876;2023-08-07T03:04:11;18.03;65.86
73112;HTU21D;61301;51.956;5.876;2023-08-07T03:06:37;18.06;65.78
73112;HTU21D;61301;51.956;5.876;2023-08-07T03:09:03;17.96;66.05
73112;HTU21D;61301;51.956;5.876;2023-08-07T03:11:29;18.07;65.84
73112;HTU21D;61301;51.956;5.876;2023-08-07T03:13:55;17.97;65.91
73112;HTU21D;61301;51.956;5.876;2023-08-07T03:16:21;17.88;66.34
73112;HTU21D;61301;51.956;5.876;2023-08-07T03:18:47;17.90;66.24
73112;HTU21D;61301;51.956;5.876;2023-08-07T03:21:13;17.74;66.72
73112;HTU21D;61301;51.956;5.876;2023-08-07T03:23:40;17.87;66.33
73112;HTU21D;61301;51.956;5.876;2023-08-07T03:26:09;17.84;66.43
73112;HTU21D;61301;51.956;5.876;2023-08-07T03:28:38;17.75;66.78
73112;HTU21D;61301;51.956;5.876;2023-08-07T03:31:05;17.81;66.62
73112;HTU21D;61301;51.956;5.876;2023-08-07T03:33:33;17.88;66.51
73112;HTU21D;61301;51.956;5.876;2023-08-07T03:35:59;17.82;66.64
73112;HTU21D;61301;51.956;5.876;2023-08-07T03:38:26;17.93;66.39
73112;HTU21D;61301;51.956;5.876;2023-08-07T03:40:54;17.90;66.39
73112;HTU21D;61301;51.956;5.876;2023-08-07T03:43:20;17.91;66.42
73112;HTU21D;61301;51.956;5.876;2023-08-07T03:45:47;17.91;66.40
73112;HTU21D;61301;51.956;5.876;2023-08-07T03:48:14;17.97;66.34
73112;HTU21D;61301;51.956;5.876;2023-08-07T03:50:41;17.97;66.36
73112;HTU21D;61301;51.956;5.876;2023-08-07T03:53:07;18.02;66.27
73112;HTU21D;61301;51.956;5.876;2023-08-07T03:55:37;18.00;66.20
73112;HTU21D;61301;51.956;5.876;2023-08-07T03:58:03;17.94;66.47
73112;HTU21D;61301;51.956;5.876;2023-08-07T04:00:29;17.87;66.66
73112;HTU21D;61301;51.956;5.876;2023-08-07T04:02:55;17.88;66.62
73112;HTU21D;61301;51.956;5.876;2023-08-07T04:05:21;17.83;66.63
73112;HTU21D;61301;51.956;5.876;2023-08-07T04:07:48;17.84;66.67
73112;HTU21D;61301;51.956;5.876;2023-08-07T04:10:14;17.88;66.59
73112;HTU21D;61301;51.956;5.876;2023-08-07T04:12:40;17.83;66.47
73112;HTU21D;61301;51.956;5.876;2023-08-07T04:15:06;17.74;66.78
73112;HTU21D;61301;51.956;5.876;2023-08-07T04:17:32;17.66;67.09
73112;HTU21D;61301;51.956;5.876;2023-08-07T04:19:59;17.74;66.92
73112;HTU21D;61301;51.956;5.876;2023-08-07T04:22:25;17.74;67.07
73112;HTU21D;61301;51.956;5.876;2023-08-07T04:24:51;17.70;67.22
73112;HTU21D;61301;51.956;5.876;2023-08-07T04:27:16;17.82;67.00
73112;HTU21D;61301;51.956;5.876;2023-08-07T04:29:43;17.75;67.30
73112;HTU21D;61301;51.956;5.876;2023-08-07T04:32:09;17.87;67.03
73112;HTU21D;61301;51.956;5.876;2023-08-07T04:34:35;17.76;67.39
73112;HTU21D;61301;51.956;5.876;2023-08-07T04:37:01;17.81;67.25
73112;HTU21D;61301;51.956;5.876;2023-08-07T04:39:27;17.80;67.38
73112;HTU21D;61301;51.956;5.876;2023-08-07T04:41:53;17.76;67.56
73112;HTU21D;61301;51.956;5.876;2023-08-07T04:44:19;17.87;67.33
73112;HTU21D;61301;51.956;5.876;2023-08-07T04:46:45;17.77;67.66
73112;HTU21D;61301;51.956;5.876;2023-08-07T04:49:11;17.67;67.93
73112;HTU21D;61301;51.956;5.876;2023-08-07T04:51:37;17.78;67.67
73112;HTU21D;61301;51.956;5.876;2023-08-07T04:54:03;17.63;68.20
73112;HTU21D;61301;51.956;5.876;2023-08-07T04:56:29;17.88;67.52
73112;HTU21D;61301;51.956;5.876;2023-08-07T04:58:56;17.93;67.40
73112;HTU21D;61301;51.956;5.876;2023-08-07T05:01:22;17.83;67.83
73112;HTU21D;61301;51.956;5.876;2023-08-07T05:03:48;17.85;67.65
73112;HTU21D;61301;51.956;5.876;2023-08-07T05:06:14;17.65;68.60
73112;HTU21D;61301;51.956;5.876;2023-08-07T05:08:40;17.68;68.46
73112;HTU21D;61301;51.956;5.876;2023-08-07T05:11:06;17.69;68.52
73112;HTU21D;61301;51.956;5.876;2023-08-07T05:13:32;17.87;68.06
73112;HTU21D;61301;51.956;5.876;2023-08-07T05:15:58;17.90;67.95
73112;HTU21D;61301;51.956;5.876;2023-08-07T05:18:24;17.90;68.04
73112;HTU21D;61301;51.956;5.876;2023-08-07T05:20:50;17.90;67.95
73112;HTU21D;61301;51.956;5.876;2023-08-07T05:23:16;17.89;68.05
73112;HTU21D;61301;51.956;5.876;2023-08-07T05:25:45;17.95;67.92
73112;HTU21D;61301;51.956;5.876;2023-08-07T05:28:12;18.03;67.62
73112;HTU21D;61301;51.956;5.876;2023-08-07T05:30:38;18.02;67.60
73112;HTU21D;61301;51.956;5.876;2023-08-07T05:33:04;18.08;67.46
73112;HTU21D;61301;51.956;5.876;2023-08-07T05:35:30;18.13;67.31
73112;HTU21D;61301;51.956;5.876;2023-08-07T05:37:56;18.05;67.62
73112;HTU21D;61301;51.956;5.876;2023-08-07T05:40:22;18.08;67.38
73112;HTU21D;61301;51.956;5.876;2023-08-07T05:42:48;17.98;67.78
73112;HTU21D;61301;51.956;5.876;2023-08-07T05:45:14;18.18;67.29
73112;HTU21D;61301;51.956;5.876;2023-08-07T05:47:40;18.17;67.27
73112;HTU21D;61301;51.956;5.876;2023-08-07T05:50:06;18.10;67.46
73112;HTU21D;61301;51.956;5.876;2023-08-07T05:52:32;18.23;67.06
73112;HTU21D;61301;51.956;5.876;2023-08-07T05:54:58;18.29;66.96
73112;HTU21D;61301;51.956;5.876;2023-08-07T05:57:24;18.29;67.02
73112;HTU21D;61301;51.956;5.876;2023-08-07T05:59:50;18.23;67.17
73112;HTU21D;61301;51.956;5.876;2023-08-07T06:02:16;18.33;66.93
73112;HTU21D;61301;51.956;5.876;2023-08-07T06:04:42;18.35;66.89
73112;HTU21D;61301;51.956;5.876;2023-08-07T06:07:08;18.41;66.61
73112;HTU21D;61301;51.956;5.876;2023-08-07T06:09:35;18.46;66.55
73112;HTU21D;61301;51.956;5.876;2023-08-07T06:12:01;18.46;66.30
73112;HTU21D;61301;51.956;5.876;2023-08-07T06:14:27;18.51;65.99
73112;HTU21D;61301;51.956;5.876;2023-08-07T06:16:54;18.39;65.87
73112;HTU21D;61301;51.956;5.876;2023-08-07T06:19:20;18.41;65.72
73112;HTU21D;61301;51.956;5.876;2023-08-07T06:21:48;18.47;65.54
73112;HTU21D;61301;51.956;5.876;2023-08-07T06:24:14;18.33;65.72
73112;HTU21D;61301;51.956;5.876;2023-08-07T06:26:40;18.49;65.57
73112;HTU21D;61301;51.956;5.876;2023-08-07T06:29:06;18.49;65.52
73112;HTU21D;61301;51.956;5.876;2023-08-07T06:31:31;18.46;65.64
73112;HTU21D;61301;51.956;5.876;2023-08-07T06:33:57;18.51;65.62
73112;HTU21D;61301;51.956;5.876;2023-08-07T06:36:25;18.52;65.53
73112;HTU21D;61301;51.956;5.876;2023-08-07T06:38:52;18.46;65.87
73112;HTU21D;61301;51.956;5.876;2023-08-07T06:41:18;18.43;65.97
73112;HTU21D;61301;51.956;5.876;2023-08-07T06:43:44;18.43;66.07
73112;HTU21D;61301;51.956;5.876;2023-08-07T06:46:10;18.49;66.13
73112;HTU21D;61301;51.956;5.876;2023-08-07T06:48:37;18.69;65.71
73112;HTU21D;61301;51.956;5.876;2023-08-07T06:51:03;18.65;65.81
73112;HTU21D;61301;51.956;5.876;2023-08-07T06:53:29;18.92;65.36
73112;HTU21D;61301;51.956;5.876;2023-08-07T06:55:55;18.97;65.33
73112;HTU21D;61301;51.956;5.876;2023-08-07T06:58:21;19.05;65.25
73112;HTU21D;61301;51.956;5.876;2023-08-07T07:00:47;19.20;64.89
73112;HTU21D;61301;51.956;5.876;2023-08-07T07:03:14;19.20;64.73
73112;HTU21D;61301;51.956;5.876;2023-08-07T07:05:40;19.17;64.56
73112;HTU21D;61301;51.956;5.876;2023-08-07T07:08:08;19.26;64.40
73112;HTU21D;61301;51.956;5.876;2023-08-07T07:10:34;19.31;63.69
73112;HTU21D;61301;51.956;5.876;2023-08-07T07:13:00;19.32;63.86
73112;HTU21D;61301;51.956;5.876;2023-08-07T07:15:26;19.27;63.85
73112;HTU21D;61301;51.956;5.876;2023-08-07T07:17:52;19.33;63.61
73112;HTU21D;61301;51.956;5.876;2023-08-07T07:20:18;19.40;63.31
73112;HTU21D;61301;51.956;5.876;2023-08-07T07:22:44;19.52;63.32
73112;HTU21D;61301;51.956;5.876;2023-08-07T07:25:10;19.55;63.35
73112;HTU21D;61301;51.956;5.876;2023-08-07T07:27:36;19.63;63.07
73112;HTU21D;61301;51.956;5.876;2023-08-07T07:30:03;19.63;63.00
73112;HTU21D;61301;51.956;5.876;2023-08-07T07:32:29;19.67;62.92
73112;HTU21D;61301;51.956;5.876;2023-08-07T07:34:55;19.68;62.12
73112;HTU21D;61301;51.956;5.876;2023-08-07T07:37:21;19.44;62.18
73112;HTU21D;61301;51.956;5.876;2023-08-07T07:39:47;19.51;62.10
73112;HTU21D;61301;51.956;5.876;2023-08-07T07:42:13;19.54;62.21
73112;HTU21D;61301;51.956;5.876;2023-08-07T07:44:39;19.72;62.15
73112;HTU21D;61301;51.956;5.876;2023-08-07T07:47:05;19.94;62.19
73112;HTU21D;61301;51.956;5.876;2023-08-07T07:49:32;20.12;61.70
73112;HTU21D;61301;51.956;5.876;2023-08-07T07:51:59;20.21;61.57
73112;HTU21D;61301;51.956;5.876;2023-08-07T07:54:25;20.40;61.36
73112;HTU21D;61301;51.956;5.876;2023-08-07T07:56:51;20.47;61.27
73112;HTU21D;61301;51.956;5.876;2023-08-07T07:59:17;20.57;61.15
73112;HTU21D;61301;51.956;5.876;2023-08-07T08:01:43;20.26;60.43
73112;HTU21D;61301;51.956;5.876;2023-08-07T08:04:09;20.21;60.74
73112;HTU21D;61301;51.956;5.876;2023-08-07T08:06:40;20.30;60.86
73112;HTU21D;61301;51.956;5.876;2023-08-07T08:09:06;20.34;60.67
73112;HTU21D;61301;51.956;5.876;2023-08-07T08:11:34;20.48;60.54
73112;HTU21D;61301;51.956;5.876;2023-08-07T08:14:00;20.55;59.31
73112;HTU21D;61301;51.956;5.876;2023-08-07T08:16:26;20.66;58.30
73112;HTU21D;61301;51.956;5.876;2023-08-07T08:18:52;20.81;58.58
73112;HTU21D;61301;51.956;5.876;2023-08-07T08:21:18;20.88;58.12
73112;HTU21D;61301;51.956;5.876;2023-08-07T08:23:44;20.94;57.36
73112;HTU21D;61301;51.956;5.876;2023-08-07T08:26:10;21.01;57.00
73112;HTU21D;61301;51.956;5.876;2023-08-07T08:28:38;21.07;56.58
73112;HTU21D;61301;51.956;5.876;2023-08-07T08:31:04;21.15;56.40
73112;HTU21D;61301;51.956;5.876;2023-08-07T08:33:30;21.27;56.16
73112;HTU21D;61301;51.956;5.876;2023-08-07T08:35:56;21.27;56.52
73112;HTU21D;61301;51.956;5.876;2023-08-07T08:38:22;21.27;55.68
73112;HTU21D;61301;51.956;5.876;2023-08-07T08:40:51;21.16;55.15
73112;HTU21D;61301;51.956;5.876;2023-08-07T08:43:18;21.06;55.74
73112;HTU21D;61301;51.956;5.876;2023-08-07T08:45:45;20.73;56.57
73112;HTU21D;61301;51.956;5.876;2023-08-07T08:48:19;20.16;58.08
73112;HTU21D;61301;51.956;5.876;2023-08-07T08:50:48;20.03;58.91
73112;HTU21D;61301;51.956;5.876;2023-08-07T08:53:16;19.97;59.22
73112;HTU21D;61301;51.956;5.876;2023-08-07T08:55:42;19.87;59.44
73112;HTU21D;61301;51.956;5.876;2023-08-07T08:58:14;20.00;59.66
73112;HTU21D;61301;51.956;5.876;2023-08-07T09:00:41;20.11;59.81
73112;HTU21D;61301;51.956;5.876;2023-08-07T09:03:07;20.03;59.67
73112;HTU21D;61301;51.956;5.876;2023-08-07T09:05:34;20.03;60.31
73112;HTU21D;61301;51.956;5.876;2023-08-07T09:08:01;20.24;60.36
73112;HTU21D;61301;51.956;5.876;2023-08-07T09:10:28;20.35;59.89
73112;HTU21D;61301;51.956;5.876;2023-08-07T09:13:03;20.47;59.47
73112;HTU21D;61301;51.956;5.876;2023-08-07T09:15:34;20.57;59.44
73112;HTU21D;61301;51.956;5.876;2023-08-07T09:18:02;20.69;58.63
73112;HTU21D;61301;51.956;5.876;2023-08-07T09:20:30;20.88;57.95
73112;HTU21D;61301;51.956;5.876;2023-08-07T09:22:56;20.85;57.58
73112;HTU21D;61301;51.956;5.876;2023-08-07T09:25:30;21.18;56.77
73112;HTU21D;61301;51.956;5.876;2023-08-07T09:27:56;21.34;56.29
73112;HTU21D;61301;51.956;5.876;2023-08-07T09:30:28;21.39;54.57
73112;HTU21D;61301;51.956;5.876;2023-08-07T09:32:57;21.52;55.18
73112;HTU21D;61301;51.956;5.876;2023-08-07T09:35:24;21.74;55.08
73112;HTU21D;61301;51.956;5.876;2023-08-07T09:37:50;21.70;54.08
73112;HTU21D;61301;51.956;5.876;2023-08-07T09:40:17;21.55;53.62
73112;HTU21D;61301;51.956;5.876;2023-08-07T09:42:44;21.44;53.82
73112;HTU21D;61301;51.956;5.876;2023-08-07T09:45:24;21.15;53.26
73112;HTU21D;61301;51.956;5.876;2023-08-07T09:48:03;21.08;54.55
73112;HTU21D;61301;51.956;5.876;2023-08-07T09:50:30;20.93;54.39
73112;HTU21D;61301;51.956;5.876;2023-08-07T09:52:56;21.06;54.54
73112;HTU21D;61301;51.956;5.876;2023-08-07T09:55:24;21.09;53.94
73112;HTU21D;61301;51.956;5.876;2023-08-07T09:57:51;21.21;53.74
73112;HTU21D;61301;51.956;5.876;2023-08-07T10:00:18;21.20;53.18
73112;HTU21D;61301;51.956;5.876;2023-08-07T10:02:48;21.52;53.87
73112;HTU21D;61301;51.956;5.876;2023-08-07T10:05:15;21.65;52.72
73112;HTU21D;61301;51.956;5.876;2023-08-07T10:07:41;21.54;50.88
73112;HTU21D;61301;51.956;5.876;2023-08-07T10:10:08;21.83;51.09
73112;HTU21D;61301;51.956;5.876;2023-08-07T10:12:36;21.87;50.43
73112;HTU21D;61301;51.956;5.876;2023-08-07T10:15:02;21.93;49.86
73112;HTU21D;61301;51.956;5.876;2023-08-07T10:17:29;22.02;49.54
73112;HTU21D;61301;51.956;5.876;2023-08-07T10:19:57;21.95;48.17
73112;HTU21D;61301;51.956;5.876;2023-08-07T10:22:25;21.83;49.51
73112;HTU21D;61301;51.956;5.876;2023-08-07T10:24:53;21.70;49.46
73112;HTU21D;61301;51.956;5.876;2023-08-07T10:27:21;21.65;49.36
73112;HTU21D;61301;51.956;5.876;2023-08-07T10:29:49;21.77;50.45
73112;HTU21D;61301;51.956;5.876;2023-08-07T10:32:20;21.82;49.76
73112;HTU21D;61301;51.956;5.876;2023-08-07T10:34:47;21.73;50.31
73112;HTU21D;61301;51.956;5.876;2023-08-07T10:40:03;21.51;50.56
73112;HTU21D;61301;51.956;5.876;2023-08-07T10:42:56;21.54;50.08
73112;HTU21D;61301;51.956;5.876;2023-08-07T10:45:26;21.28;51.66
73112;HTU21D;61301;51.956;5.876;2023-08-07T10:48:11;21.29;52.32
73112;HTU21D;61301;51.956;5.876;2023-08-07T10:50:51;21.49;52.19
73112;HTU21D;61301;51.956;5.876;2023-08-07T10:53:37;21.57;51.42
73112;HTU21D;61301;51.956;5.876;2023-08-07T10:56:31;21.79;51.19
73112;HTU21D;61301;51.956;5.876;2023-08-07T10:58:57;21.59;50.69
73112;HTU21D;61301;51.956;5.876;2023-08-07T11:04:09;21.44;48.83
73112;HTU21D;61301;51.956;5.876;2023-08-07T11:06:37;21.43;50.07
73112;HTU21D;61301;51.956;5.876;2023-08-07T11:09:05;21.57;49.73
73112;HTU21D;61301;51.956;5.876;2023-08-07T11:14:15;21.89;49.11
73112;HTU21D;61301;51.956;5.876;2023-08-07T11:16:42;21.93;48.02
73112;HTU21D;61301;51.956;5.876;2023-08-07T11:19:08;21.96;48.21
73112;HTU21D;61301;51.956;5.876;2023-08-07T11:21:37;22.13;47.93
73112;HTU21D;61301;51.956;5.876;2023-08-07T11:24:03;22.35;48.41
73112;HTU21D;61301;51.956;5.876;2023-08-07T11:26:29;22.55;47.60
73112;HTU21D;61301;51.956;5.876;2023-08-07T11:28:56;22.79;47.50
73112;HTU21D;61301;51.956;5.876;2023-08-07T11:31:23;22.73;47.41
73112;HTU21D;61301;51.956;5.876;2023-08-07T11:33:55;22.62;47.16
73112;HTU21D;61301;51.956;5.876;2023-08-07T11:36:22;22.49;47.81
73112;HTU21D;61301;51.956;5.876;2023-08-07T11:38:48;22.32;47.49
73112;HTU21D;61301;51.956;5.876;2023-08-07T11:41:16;22.36;47.85
73112;HTU21D;61301;51.956;5.876;2023-08-07T11:43:42;22.49;47.39
73112;HTU21D;61301;51.956;5.876;2023-08-07T11:46:11;22.72;48.17
73112;HTU21D;61301;51.956;5.876;2023-08-07T11:48:39;22.91;48.36
73112;HTU21D;61301;51.956;5.876;2023-08-07T11:51:06;22.84;48.12
73112;HTU21D;61301;51.956;5.876;2023-08-07T11:53:34;22.60;47.80
73112;HTU21D;61301;51.956;5.876;2023-08-07T11:56:05;22.46;48.55
73112;HTU21D;61301;51.956;5.876;2023-08-07T11:58:36;22.24;47.83
73112;HTU21D;61301;51.956;5.876;2023-08-07T12:01:09;22.35;49.13
73112;HTU21D;61301;51.956;5.876;2023-08-07T12:03:37;22.39;49.61
73112;HTU21D;61301;51.956;5.876;2023-08-07T12:06:07;22.31;48.74
73112;HTU21D;61301;51.956;5.876;2023-08-07T12:08:38;22.22;48.17
73112;HTU21D;61301;51.956;5.876;2023-08-07T12:11:07;22.24;47.05
73112;HTU21D;61301;51.956;5.876;2023-08-07T12:13:33;22.13;46.92
73112;HTU21D;61301;51.956;5.876;2023-08-07T12:16:01;22.26;47.43
73112;HTU21D;61301;51.956;5.876;2023-08-07T12:18:30;22.53;47.31
73112;HTU21D;61301;51.956;5.876;2023-08-07T12:21:00;22.80;46.81
73112;HTU21D;61301;51.956;5.876;2023-08-07T12:23:26;22.79;45.93
73112;HTU21D;61301;51.956;5.876;2023-08-07T12:25:53;22.76;45.19
73112;HTU21D;61301;51.956;5.876;2023-08-07T12:28:19;23.08;45.66
73112;HTU21D;61301;51.956;5.876;2023-08-07T12:30:46;23.42;46.12
73112;HTU21D;61301;51.956;5.876;2023-08-07T12:33:14;23.56;45.05
73112;HTU21D;61301;51.956;5.876;2023-08-07T12:35:41;23.70;45.58
73112;HTU21D;61301;51.956;5.876;2023-08-07T12:38:07;23.79;44.68
73112;HTU21D;61301;51.956;5.876;2023-08-07T12:40:35;24.00;44.90
73112;HTU21D;61301;51.956;5.876;2023-08-07T12:43:04;23.96;43.66
73112;HTU21D;61301;51.956;5.876;2023-08-07T12:45:30;23.77;44.53
73112;HTU21D;61301;51.956;5.876;2023-08-07T12:47:56;23.72;45.09
73112;HTU21D;61301;51.956;5.876;2023-08-07T12:50:22;23.83;43.03
73112;HTU21D;61301;51.956;5.876;2023-08-07T12:52:48;23.87;42.93
73112;HTU21D;61301;51.956;5.876;2023-08-07T12:55:14;23.75;43.80
73112;HTU21D;61301;51.956;5.876;2023-08-07T12:57:44;23.56;44.02
73112;HTU21D;61301;51.956;5.876;2023-08-07T13:00:11;23.26;43.39
73112;HTU21D;61301;51.956;5.876;2023-08-07T13:02:45;23.27;44.36
73112;HTU21D;61301;51.956;5.876;2023-08-07T13:05:12;23.32;44.59
73112;HTU21D;61301;51.956;5.876;2023-08-07T13:07:39;23.51;44.77
73112;HTU21D;61301;51.956;5.876;2023-08-07T13:10:06;23.89;44.99
73112;HTU21D;61301;51.956;5.876;2023-08-07T13:12:36;24.11;44.59
73112;HTU21D;61301;51.956;5.876;2023-08-07T13:15:07;24.35;44.49
73112;HTU21D;61301;51.956;5.876;2023-08-07T13:17:38;24.30;43.03
73112;HTU21D;61301;51.956;5.876;2023-08-07T13:20:05;24.55;43.27
73112;HTU21D;61301;51.956;5.876;2023-08-07T13:22:38;24.41;39.96
73112;HTU21D;61301;51.956;5.876;2023-08-07T13:25:05;24.57;41.14
73112;HTU21D;61301;51.956;5.876;2023-08-07T13:27:33;24.47;39.17
73112;HTU21D;61301;51.956;5.876;2023-08-07T13:30:00;24.43;39.72
73112;HTU21D;61301;51.956;5.876;2023-08-07T13:32:26;24.64;41.22
73112;HTU21D;61301;51.956;5.876;2023-08-07T13:34:53;24.65;38.04
73112;HTU21D;61301;51.956;5.876;2023-08-07T13:37:19;24.54;38.97
73112;HTU21D;61301;51.956;5.876;2023-08-07T13:39:45;24.65;38.56
73112;HTU21D;61301;51.956;5.876;2023-08-07T13:42:11;24.61;38.35
73112;HTU21D;61301;51.956;5.876;2023-08-07T13:44:37;24.57;36.39
73112;HTU21D;61301;51.956;5.876;2023-08-07T13:47:04;24.54;37.34
73112;HTU21D;61301;51.956;5.876;2023-08-07T13:49:30;24.30;37.91
73112;HTU21D;61301;51.956;5.876;2023-08-07T13:51:56;24.34;39.82
73112;HTU21D;61301;51.956;5.876;2023-08-07T13:54:22;24.40;39.14
73112;HTU21D;61301;51.956;5.876;2023-08-07T13:56:48;24.45;39.05
73112;HTU21D;61301;51.956;5.876;2023-08-07T13:59:16;24.66;37.82
73112;HTU21D;61301;51.956;5.876;2023-08-07T14:01:42;24.69;37.86
73112;HTU21D;61301;51.956;5.876;2023-08-07T14:04:08;24.78;38.51
73112;HTU21D;61301;51.956;5.876;2023-08-07T14:06:34;24.91;38.47
73112;HTU21D;61301;51.956;5.876;2023-08-07T14:09:00;24.76;37.39
73112;HTU21D;61301;51.956;5.876;2023-08-07T14:11:26;24.93;37.40
73112;HTU21D;61301;51.956;5.876;2023-08-07T14:13:57;25.15;36.53
73112;HTU21D;61301;51.956;5.876;2023-08-07T14:16:24;25.25;37.02
73112;HTU21D;61301;51.956;5.876;2023-08-07T14:18:50;25.01;36.99
73112;HTU21D;61301;51.956;5.876;2023-08-07T14:21:17;24.74;36.92
73112;HTU21D;61301;51.956;5.876;2023-08-07T14:23:43;24.61;37.40
73112;HTU21D;61301;51.956;5.876;2023-08-07T14:26:12;24.32;37.48
73112;HTU21D;61301;51.956;5.876;2023-08-07T14:28:38;24.34;38.20
73112;HTU21D;61301;51.956;5.876;2023-08-07T14:31:08;24.58;37.91
73112;HTU21D;61301;51.956;5.876;2023-08-07T14:33:34;24.76;38.65
73112;HTU21D;61301;51.956;5.876;2023-08-07T14:36:01;24.62;36.67
73112;HTU21D;61301;51.956;5.876;2023-08-07T14:38:28;24.56;36.28
73112;HTU21D;61301;51.956;5.876;2023-08-07T14:40:54;24.30;36.28
73112;HTU21D;61301;51.956;5.876;2023-08-07T14:43:21;24.25;37.46
73112;HTU21D;61301;51.956;5.876;2023-08-07T14:45:47;23.89;36.75
73112;HTU21D;61301;51.956;5.876;2023-08-07T14:48:13;23.90;37.05
73112;HTU21D;61301;51.956;5.876;2023-08-07T14:50:40;24.27;37.44
73112;HTU21D;61301;51.956;5.876;2023-08-07T14:53:06;24.29;34.70
73112;HTU21D;61301;51.956;5.876;2023-08-07T14:55:32;24.39;35.05
73112;HTU21D;61301;51.956;5.876;2023-08-07T14:57:58;24.54;36.33
73112;HTU21D;61301;51.956;5.876;2023-08-07T15:00:25;24.53;36.62
73112;HTU21D;61301;51.956;5.876;2023-08-07T15:02:51;24.54;37.33
73112;HTU21D;61301;51.956;5.876;2023-08-07T15:05:16;24.69;36.32
73112;HTU21D;61301;51.956;5.876;2023-08-07T15:07:43;24.64;35.44
73112;HTU21D;61301;51.956;5.876;2023-08-07T15:10:09;24.77;35.77
73112;HTU21D;61301;51.956;5.876;2023-08-07T15:12:35;24.69;35.36
73112;HTU21D;61301;51.956;5.876;2023-08-07T15:15:02;24.68;36.14
73112;HTU21D;61301;51.956;5.876;2023-08-07T15:17:28;24.75;35.76
73112;HTU21D;61301;51.956;5.876;2023-08-07T15:19:54;25.02;36.63
73112;HTU21D;61301;51.956;5.876;2023-08-07T15:22:20;24.93;34.94
73112;HTU21D;61301;51.956;5.876;2023-08-07T15:24:46;25.01;36.55
73112;HTU21D;61301;51.956;5.876;2023-08-07T15:27:12;25.21;36.08